sensor_id;sensor_type;location;lat;lon;timestamp;pressure;altitude;pressure_sealevel;temperature;humidity
41706;BME280;27385;51.096;17.190;2023-05-28T00:01:38;100905.44;;;8.36;61.86
41706;BME280;27385;51.096;17.190;2023-05-28T00:04:08;100903.55;;;8.31;62.04
41706;BME280;27385;51.096;17.190;2023-05-28T00:06:39;100902.61;;;8.25;62.13
41706;BME280;27385;51.096;17.190;2023-05-28T00:09:10;100902.45;;;8.20;62.26
41706;BME280;27385;51.096;17.190;2023-05-28T00:11:41;100899.94;;;8.14;62.32
41706;BME280;27385;51.096;17.190;2023-05-28T00:14:13;100900.66;;;8.08;62.46
41706;BME280;27385;51.096;17.190;2023-05-28T00:16:43;100897.30;;;8.02;62.57
41706;BME280;27385;51.096;17.190;2023-05-28T00:19:14;100895.61;;;7.97;62.70
41706;BME280;27385;51.096;17.190;2023-05-28T00:21:45;100889.89;;;7.92;62.73
41706;BME280;27385;51.096;17.190;2023-05-28T00:24:16;100890.59;;;7.88;62.88
41706;BME280;27385;51.096;17.190;2023-05-28T00:26:47;100891.50;;;7.85;63.15
41706;BME280;27385;51.096;17.190;2023-05-28T00:29:17;100887.77;;;7.80;63.19
41706;BME280;27385;51.096;17.190;2023-05-28T00:31:51;100892.98;;;7.75;63.22
41706;BME280;27385;51.096;17.190;2023-05-28T00:34:25;100897.65;;;7.71;63.42
41706;BME280;27385;51.096;17.190;2023-05-28T00:36:56;100896.71;;;7.68;63.43
41706;BME280;27385;51.096;17.190;2023-05-28T00:39:26;100892.92;;;7.64;63.48
41706;BME280;27385;51.096;17.190;2023-05-28T00:42:04;100890.70;;;7.59;63.60
41706;BME280;27385;51.096;17.190;2023-05-28T00:44:40;100890.25;;;7.53;63.78
41706;BME280;27385;51.096;17.190;2023-05-28T00:47:12;100890.52;;;7.47;63.97
41706;BME280;27385;51.096;17.190;2023-05-28T00:49:43;100889.77;;;7.43;64.12
41706;BME280;27385;51.096;17.190;2023-05-28T00:52:15;100887.19;;;7.39;64.14
41706;BME280;27385;51.096;17.190;2023-05-28T00:54:46;100886.08;;;7.33;64.12
41706;BME280;27385;51.096;17.190;2023-05-28T00:57:17;100887.43;;;7.28;64.40
41706;BME280;27385;51.096;17.190;2023-05-28T00:59:51;100877.84;;;7.22;64.54
41706;BME280;27385;51.096;17.190;2023-05-28T01:02:24;100878.31;;;7.16;64.68
41706;BME280;27385;51.096;17.190;2023-05-28T01:04:55;100874.80;;;7.12;64.90
41706;BME280;27385;51.096;17.190;2023-05-28T01:07:26;100870.70;;;7.08;64.91
41706;BME280;27385;51.096;17.190;2023-05-28T01:09:56;100865.58;;;7.04;65.04
41706;BME280;27385;51.096;17.190;2023-05-28T01:12:27;100862.05;;;7.00;65.23
41706;BME280;27385;51.096;17.190;2023-05-28T01:15:00;100863.33;;;6.97;65.28
41706;BME280;27385;51.096;17.190;2023-05-28T01:17:32;100859.88;;;6.93;65.37
41706;BME280;27385;51.096;17.190;2023-05-28T01:20:03;100857.31;;;6.88;65.43
41706;BME280;27385;51.096;17.190;2023-05-28T01:22:45;100853.23;;;6.84;65.66
41706;BME280;27385;51.096;17.190;2023-05-28T01:25:17;100860.52;;;6.80;65.80
41706;BME280;27385;51.096;17.190;2023-05-28T01:27:48;100859.52;;;6.77;66.02
41706;BME280;27385;51.096;17.190;2023-05-28T01:30:19;100856.77;;;6.77;66.18
41706;BME280;27385;51.096;17.190;2023-05-28T01:32:50;100855.93;;;6.75;66.43
41706;BME280;27385;51.096;17.190;2023-05-28T01:35:22;100856.62;;;6.73;66.56
41706;BME280;27385;51.096;17.190;2023-05-28T01:37:55;100854.75;;;6.69;66.66
41706;BME280;27385;51.096;17.190;2023-05-28T01:40:27;100856.56;;;6.64;66.86
41706;BME280;27385;51.096;17.190;2023-05-28T01:42:58;100858.39;;;6.58;67.10
41706;BME280;27385;51.096;17.190;2023-05-28T01:45:30;100862.48;;;6.53;67.12
41706;BME280;27385;51.096;17.190;2023-05-28T01:48:01;100861.27;;;6.50;67.10
41706;BME280;27385;51.096;17.190;2023-05-28T01:50:32;100858.80;;;6.48;67.12
41706;BME280;27385;51.096;17.190;2023-05-28T01:53:03;100856.46;;;6.43;67.17
41706;BME280;27385;51.096;17.190;2023-05-28T01:55:34;100852.25;;;6.40;67.23
41706;BME280;27385;51.096;17.190;2023-05-28T01:58:05;100849.14;;;6.38;67.27
41706;BME280;27385;51.096;17.190;2023-05-28T02:00:51;100847.24;;;6.35;67.40
41706;BME280;27385;51.096;17.190;2023-05-28T02:03:25;100846.77;;;6.33;67.44
41706;BME280;27385;51.096;17.190;2023-05-28T02:05:56;100845.75;;;6.29;67.62
41706;BME280;27385;51.096;17.190;2023-05-28T02:08:27;100844.58;;;6.26;67.82
41706;BME280;27385;51.096;17.190;2023-05-28T02:11:00;100840.92;;;6.22;67.95
41706;BME280;27385;51.096;17.190;2023-05-28T02:13:31;100842.73;;;6.19;68.06
41706;BME280;27385;51.096;17.190;2023-05-28T02:16:02;100837.73;;;6.17;68.10
41706;BME280;27385;51.096;17.190;2023-05-28T02:18:35;100834.53;;;6.16;68.08
41706;BME280;27385;51.096;17.190;2023-05-28T02:21:06;100829.84;;;6.13;68.16
41706;BME280;27385;51.096;17.190;2023-05-28T02:23:39;100830.73;;;6.10;68.30
41706;BME280;27385;51.096;17.190;2023-05-28T02:26:09;100829.30;;;6.06;68.48
41706;BME280;27385;51.096;17.190;2023-05-28T02:28:41;100832.16;;;6.03;68.51
41706;BME280;27385;51.096;17.190;2023-05-28T02:31:13;100831.63;;;5.99;68.62
41706;BME280;27385;51.096;17.190;2023-05-28T02:33:44;100833.25;;;5.98;68.81
41706;BME280;27385;51.096;17.190;2023-05-28T02:36:15;100831.95;;;5.95;68.92
41706;BME280;27385;51.096;17.190;2023-05-28T02:38:46;100833.22;;;5.92;68.95
41706;BME280;27385;51.096;17.190;2023-05-28T02:41:17;100837.05;;;5.91;69.09
41706;BME280;27385;51.096;17.190;2023-05-28T02:43:47;100841.02;;;5.90;69.25
41706;BME280;27385;51.096;17.190;2023-05-28T02:46:18;100836.55;;;5.88;69.25
41706;BME280;27385;51.096;17.190;2023-05-28T02:48:49;100837.08;;;5.86;69.37
41706;BME280;27385;51.096;17.190;2023-05-28T02:51:19;100840.55;;;5.82;69.48
41706;BME280;27385;51.096;17.190;2023-05-28T02:53:50;100841.63;;;5.81;69.72
41706;BME280;27385;51.096;17.190;2023-05-28T02:56:21;100842.65;;;5.77;69.72
41706;BME280;27385;51.096;17.190;2023-05-28T02:58:52;100840.14;;;5.72;69.76
41706;BME280;27385;51.096;17.190;2023-05-28T03:01:23;100841.17;;;5.69;69.82
41706;BME280;27385;51.096;17.190;2023-05-28T03:03:55;100841.70;;;5.66;69.99
41706;BME280;27385;51.096;17.190;2023-05-28T03:06:26;100841.14;;;5.64;70.11
41706;BME280;27385;51.096;17.190;2023-05-28T03:08:57;100839.86;;;5.61;70.13
41706;BME280;27385;51.096;17.190;2023-05-28T03:11:27;100847.73;;;5.60;70.48
41706;BME280;27385;51.096;17.190;2023-05-28T03:13:58;100849.56;;;5.59;70.55
41706;BME280;27385;51.096;17.190;2023-05-28T03:16:29;100848.50;;;5.57;70.56
41706;BME280;27385;51.096;17.190;2023-05-28T03:19:02;100850.19;;;5.56;70.65
41706;BME280;27385;51.096;17.190;2023-05-28T03:21:32;100854.55;;;5.56;70.84
41706;BME280;27385;51.096;17.190;2023-05-28T03:24:05;100857.00;;;5.55;71.06
41706;BME280;27385;51.096;17.190;2023-05-28T03:26:36;100856.75;;;5.56;71.06
41706;BME280;27385;51.096;17.190;2023-05-28T03:29:07;100858.63;;;5.57;71.20
41706;BME280;27385;51.096;17.190;2023-05-28T03:31:46;100855.61;;;5.58;71.28
41706;BME280;27385;51.096;17.190;2023-05-28T03:34:17;100855.05;;;5.61;71.56
41706;BME280;27385;51.096;17.190;2023-05-28T03:36:47;100851.54;;;5.66;71.76
41706;BME280;27385;51.096;17.190;2023-05-28T03:39:18;100848.05;;;5.69;71.99
41706;BME280;27385;51.096;17.190;2023-05-28T03:41:49;100847.94;;;5.71;72.20
41706;BME280;27385;51.096;17.190;2023-05-28T03:44:19;100848.78;;;5.72;72.38
41706;BME280;27385;51.096;17.190;2023-05-28T03:46:50;100852.25;;;5.72;72.47
41706;BME280;27385;51.096;17.190;2023-05-28T03:49:21;100856.86;;;5.75;72.59
41706;BME280;27385;51.096;17.190;2023-05-28T03:51:51;100859.63;;;5.79;72.78
41706;BME280;27385;51.096;17.190;2023-05-28T03:54:22;100861.85;;;5.82;72.95
41706;BME280;27385;51.096;17.190;2023-05-28T03:56:56;100864.85;;;5.87;72.88
41706;BME280;27385;51.096;17.190;2023-05-28T03:59:26;100862.39;;;5.91;73.10
41706;BME280;27385;51.096;17.190;2023-05-28T04:01:57;100863.84;;;5.97;73.06
41706;BME280;27385;51.096;17.190;2023-05-28T04:04:28;100856.63;;;6.03;73.29
41706;BME280;27385;51.096;17.190;2023-05-28T04:06:59;100857.98;;;6.09;73.37
41706;BME280;27385;51.096;17.190;2023-05-28T04:09:29;100857.46;;;6.14;73.57
41706;BME280;27385;51.096;17.190;2023-05-28T04:12:01;100856.23;;;6.19;73.46
41706;BME280;27385;51.096;17.190;2023-05-28T04:14:32;100857.85;;;6.26;73.62
41706;BME280;27385;51.096;17.190;2023-05-28T04:17:03;100853.13;;;6.34;73.49
41706;BME280;27385;51.096;17.190;2023-05-28T04:19:34;100851.65;;;6.42;73.84
41706;BME280;27385;51.096;17.190;2023-05-28T04:22:05;100852.48;;;6.50;73.98
41706;BME280;27385;51.096;17.190;2023-05-28T04:24:36;100854.71;;;6.58;74.05
41706;BME280;27385;51.096;17.190;2023-05-28T04:27:06;100854.66;;;6.67;74.13
41706;BME280;27385;51.096;17.190;2023-05-28T04:29:37;100857.65;;;6.76;74.18
41706;BME280;27385;51.096;17.190;2023-05-28T04:32:09;100858.33;;;6.86;74.10
41706;BME280;27385;51.096;17.190;2023-05-28T04:34:40;100858.60;;;6.98;74.21
41706;BME280;27385;51.096;17.190;2023-05-28T04:37:11;100853.40;;;7.11;73.97
41706;BME280;27385;51.096;17.190;2023-05-28T04:39:42;100855.23;;;7.24;74.27
41706;BME280;27385;51.096;17.190;2023-05-28T04:42:12;100854.64;;;7.39;74.05
41706;BME280;27385;51.096;17.190;2023-05-28T04:44:46;100850.40;;;7.56;74.03
41706;BME280;27385;51.096;17.190;2023-05-28T04:47:17;100845.65;;;7.73;73.96
41706;BME280;27385;51.096;17.190;2023-05-28T04:49:47;100851.38;;;7.90;73.67
41706;BME280;27385;51.096;17.190;2023-05-28T04:52:18;100853.86;;;8.06;73.43
41706;BME280;27385;51.096;17.190;2023-05-28T04:54:49;100857.08;;;8.22;73.48
41706;BME280;27385;51.096;17.190;2023-05-28T04:57:20;100855.59;;;8.39;73.07
41706;BME280;27385;51.096;17.190;2023-05-28T04:59:51;100856.45;;;8.55;73.12
41706;BME280;27385;51.096;17.190;2023-05-28T05:02:21;100857.04;;;8.72;72.51
41706;BME280;27385;51.096;17.190;2023-05-28T05:04:54;100860.30;;;8.89;72.30
41706;BME280;27385;51.096;17.190;2023-05-28T05:07:26;100858.45;;;9.08;71.79
41706;BME280;27385;51.096;17.190;2023-05-28T05:09:57;100858.09;;;9.24;71.67
41706;BME280;27385;51.096;17.190;2023-05-28T05:12:28;100857.98;;;9.40;71.28
41706;BME280;27385;51.096;17.190;2023-05-28T05:14:59;100857.64;;;9.54;71.22
41706;BME280;27385;51.096;17.190;2023-05-28T05:17:30;100859.73;;;9.70;70.62
41706;BME280;27385;51.096;17.190;2023-05-28T05:20:04;100860.25;;;9.85;70.31
41706;BME280;27385;51.096;17.190;2023-05-28T05:22:35;100860.02;;;10.03;69.77
41706;BME280;27385;51.096;17.190;2023-05-28T05:25:07;100861.59;;;10.17;69.59
41706;BME280;27385;51.096;17.190;2023-05-28T05:27:38;100861.95;;;10.31;69.21
41706;BME280;27385;51.096;17.190;2023-05-28T05:30:11;100860.13;;;10.46;68.51
41706;BME280;27385;51.096;17.190;2023-05-28T05:32:41;100860.59;;;10.60;68.43
41706;BME280;27385;51.096;17.190;2023-05-28T05:35:12;100855.94;;;10.73;67.97
41706;BME280;27385;51.096;17.190;2023-05-28T05:37:44;100854.56;;;10.88;67.58
41706;BME280;27385;51.096;17.190;2023-05-28T05:40:15;100852.51;;;11.00;67.66
41706;BME280;27385;51.096;17.190;2023-05-28T05:42:46;100850.16;;;11.09;67.50
41706;BME280;27385;51.096;17.190;2023-05-28T05:45:17;100852.91;;;11.22;67.45
41706;BME280;27385;51.096;17.190;2023-05-28T05:47:47;100848.79;;;11.34;67.04
41706;BME280;27385;51.096;17.190;2023-05-28T05:50:18;100852.40;;;11.44;66.80
41706;BME280;27385;51.096;17.190;2023-05-28T05:52:49;100851.83;;;11.56;66.52
41706;BME280;27385;51.096;17.190;2023-05-28T05:55:20;100848.05;;;11.69;66.29
41706;BME280;27385;51.096;17.190;2023-05-28T05:57:51;100845.14;;;11.81;66.02
41706;BME280;27385;51.096;17.190;2023-05-28T06:00:21;100845.11;;;11.95;65.66
41706;BME280;27385;51.096;17.190;2023-05-28T06:02:52;100841.02;;;12.09;65.03
41706;BME280;27385;51.096;17.190;2023-05-28T06:05:23;100839.39;;;12.23;64.64
41706;BME280;27385;51.096;17.190;2023-05-28T06:07:54;100838.56;;;12.35;64.28
41706;BME280;27385;51.096;17.190;2023-05-28T06:10:26;100836.54;;;12.43;63.75
41706;BME280;27385;51.096;17.190;2023-05-28T06:12:57;100845.61;;;12.48;63.91
41706;BME280;27385;51.096;17.190;2023-05-28T06:15:30;100843.77;;;12.57;63.86
41706;BME280;27385;51.096;17.190;2023-05-28T06:18:01;100842.79;;;12.69;63.36
41706;BME280;27385;51.096;17.190;2023-05-28T06:20:32;100839.90;;;12.80;63.42
41706;BME280;27385;51.096;17.190;2023-05-28T06:23:03;100840.46;;;12.93;63.15
41706;BME280;27385;51.096;17.190;2023-05-28T06:25:35;100833.67;;;13.05;62.75
41706;BME280;27385;51.096;17.190;2023-05-28T06:28:09;100836.23;;;13.16;62.12
41706;BME280;27385;51.096;17.190;2023-05-28T06:30:40;100834.67;;;13.27;62.34
41706;BME280;27385;51.096;17.190;2023-05-28T06:33:11;100840.95;;;13.42;62.21
41706;BME280;27385;51.096;17.190;2023-05-28T06:35:42;100844.81;;;13.53;61.60
41706;BME280;27385;51.096;17.190;2023-05-28T06:38:13;100844.22;;;13.62;61.49
41706;BME280;27385;51.096;17.190;2023-05-28T06:40:44;100846.74;;;13.74;60.64
41706;BME280;27385;51.096;17.190;2023-05-28T06:43:16;100844.66;;;13.85;60.29
41706;BME280;27385;51.096;17.190;2023-05-28T06:45:47;100838.98;;;13.94;60.00
41706;BME280;27385;51.096;17.190;2023-05-28T06:48:18;100837.15;;;14.05;60.34
41706;BME280;27385;51.096;17.190;2023-05-28T06:50:49;100839.30;;;14.19;59.79
41706;BME280;27385;51.096;17.190;2023-05-28T06:53:21;100836.16;;;14.28;58.99
41706;BME280;27385;51.096;17.190;2023-05-28T06:55:55;100833.67;;;14.36;58.67
41706;BME280;27385;51.096;17.190;2023-05-28T06:58:26;100836.68;;;14.43;58.15
41706;BME280;27385;51.096;17.190;2023-05-28T07:00:57;100842.55;;;14.50;58.00
41706;BME280;27385;51.096;17.190;2023-05-28T07:03:33;100841.48;;;14.58;58.02
41706;BME280;27385;51.096;17.190;2023-05-28T07:06:05;100842.77;;;14.69;57.37
41706;BME280;27385;51.096;17.190;2023-05-28T07:08:36;100839.70;;;14.77;57.01
41706;BME280;27385;51.096;17.190;2023-05-28T07:11:10;100842.57;;;14.87;57.08
41706;BME280;27385;51.096;17.190;2023-05-28T07:13:42;100840.82;;;14.94;55.91
41706;BME280;27385;51.096;17.190;2023-05-28T07:16:13;100840.48;;;15.02;55.91
41706;BME280;27385;51.096;17.190;2023-05-28T07:18:44;100835.58;;;15.13;55.83
41706;BME280;27385;51.096;17.190;2023-05-28T07:21:17;100832.97;;;15.21;54.71
41706;BME280;27385;51.096;17.190;2023-05-28T07:23:48;100834.27;;;15.23;54.68
41706;BME280;27385;51.096;17.190;2023-05-28T07:26:19;100836.35;;;15.33;54.42
41706;BME280;27385;51.096;17.190;2023-05-28T07:28:50;100834.61;;;15.43;54.21
41706;BME280;27385;51.096;17.190;2023-05-28T07:31:21;100835.70;;;15.49;53.57
41706;BME280;27385;51.096;17.190;2023-05-28T07:33:52;100832.00;;;15.58;53.81
41706;BME280;27385;51.096;17.190;2023-05-28T07:36:24;100830.08;;;15.68;52.78
41706;BME280;27385;51.096;17.190;2023-05-28T07:38:55;100823.62;;;15.74;52.43
41706;BME280;27385;51.096;17.190;2023-05-28T07:41:25;100822.20;;;15.83;52.49
41706;BME280;27385;51.096;17.190;2023-05-28T07:43:57;100820.66;;;15.93;52.26
41706;BME280;27385;51.096;17.190;2023-05-28T07:46:28;100817.71;;;16.02;51.89
41706;BME280;27385;51.096;17.190;2023-05-28T07:48:59;100813.72;;;16.12;51.52
41706;BME280;27385;51.096;17.190;2023-05-28T07:51:30;100813.98;;;16.23;50.99
41706;BME280;27385;51.096;17.190;2023-05-28T07:54:02;100815.98;;;16.30;50.03
41706;BME280;27385;51.096;17.190;2023-05-28T07:56:34;100814.00;;;16.34;49.89
41706;BME280;27385;51.096;17.190;2023-05-28T07:59:05;100810.34;;;16.42;49.63
41706;BME280;27385;51.096;17.190;2023-05-28T08:01:37;100803.80;;;16.52;49.42
41706;BME280;27385;51.096;17.190;2023-05-28T08:04:08;100800.21;;;16.63;48.86
41706;BME280;27385;51.096;17.190;2023-05-28T08:06:39;100799.41;;;16.70;48.37
41706;BME280;27385;51.096;17.190;2023-05-28T08:09:10;100796.40;;;16.78;47.98
41706;BME280;27385;51.096;17.190;2023-05-28T08:11:40;100791.35;;;16.89;47.99
41706;BME280;27385;51.096;17.190;2023-05-28T08:14:11;100793.73;;;17.00;47.53
41706;BME280;27385;51.096;17.190;2023-05-28T08:16:43;100787.84;;;17.12;46.78
41706;BME280;27385;51.096;17.190;2023-05-28T08:19:14;100792.52;;;17.17;45.75
41706;BME280;27385;51.096;17.190;2023-05-28T08:21:45;100787.50;;;17.22;45.26
41706;BME280;27385;51.096;17.190;2023-05-28T08:24:15;100781.55;;;17.25;45.38
41706;BME280;27385;51.096;17.190;2023-05-28T08:26:47;100781.61;;;17.29;45.30
41706;BME280;27385;51.096;17.190;2023-05-28T08:29:18;100774.98;;;17.37;45.14
41706;BME280;27385;51.096;17.190;2023-05-28T08:31:49;100773.65;;;17.46;44.54
41706;BME280;27385;51.096;17.190;2023-05-28T08:34:20;100777.98;;;17.52;44.53
41706;BME280;27385;51.096;17.190;2023-05-28T08:36:54;100780.39;;;17.62;44.80
41706;BME280;27385;51.096;17.190;2023-05-28T08:39:25;100779.39;;;17.74;44.13
41706;BME280;27385;51.096;17.190;2023-05-28T08:41:56;100772.43;;;17.90;44.39
41706;BME280;27385;51.096;17.190;2023-05-28T08:44:27;100774.23;;;18.05;43.95
41706;BME280;27385;51.096;17.190;2023-05-28T08:47:01;100770.84;;;18.10;43.35
41706;BME280;27385;51.096;17.190;2023-05-28T08:49:35;100774.42;;;18.14;43.08
41706;BME280;27385;51.096;17.190;2023-05-28T08:52:09;100772.14;;;18.18;42.74
41706;BME280;27385;51.096;17.190;2023-05-28T08:54:42;100776.86;;;18.22;41.58
41706;BME280;27385;51.096;17.190;2023-05-28T08:57:14;100772.59;;;18.22;41.01
41706;BME280;27385;51.096;17.190;2023-05-28T08:59:46;100770.77;;;18.16;41.09
41706;BME280;27385;51.096;17.190;2023-05-28T09:02:20;100767.47;;;18.18;40.64
41706;BME280;27385;51.096;17.190;2023-05-28T09:04:51;100764.80;;;18.18;40.00
41706;BME280;27385;51.096;17.190;2023-05-28T09:07:23;100765.25;;;18.21;39.99
41706;BME280;27385;51.096;17.190;2023-05-28T09:09:55;100767.45;;;18.22;40.19
41706;BME280;27385;51.096;17.190;2023-05-28T09:12:28;100768.05;;;18.28;39.98
41706;BME280;27385;51.096;17.190;2023-05-28T09:14:58;100768.33;;;18.34;39.42
41706;BME280;27385;51.096;17.190;2023-05-28T09:17:38;100766.82;;;18.37;38.98
41706;BME280;27385;51.096;17.190;2023-05-28T09:20:13;100764.71;;;18.42;39.19
41706;BME280;27385;51.096;17.190;2023-05-28T09:22:45;100762.22;;;18.51;39.01
41706;BME280;27385;51.096;17.190;2023-05-28T09:25:21;100756.69;;;18.56;38.76
41706;BME280;27385;51.096;17.190;2023-05-28T09:27:57;100758.65;;;18.64;38.59
41706;BME280;27385;51.096;17.190;2023-05-28T09:30:33;100761.47;;;18.67;38.45
41706;BME280;27385;51.096;17.190;2023-05-28T09:33:05;100760.97;;;18.72;38.07
41706;BME280;27385;51.096;17.190;2023-05-28T09:35:37;100760.87;;;18.71;37.61
41706;BME280;27385;51.096;17.190;2023-05-28T09:38:10;100758.71;;;18.72;36.94
41706;BME280;27385;51.096;17.190;2023-05-28T09:40:42;100758.27;;;18.69;36.82
41706;BME280;27385;51.096;17.190;2023-05-28T09:43:13;100754.45;;;18.63;37.19
41706;BME280;27385;51.096;17.190;2023-05-28T09:45:45;100758.19;;;18.67;37.65
41706;BME280;27385;51.096;17.190;2023-05-28T09:48:21;100750.45;;;18.78;37.84
41706;BME280;27385;51.096;17.190;2023-05-28T09:50:53;100757.65;;;18.85;37.35
41706;BME280;27385;51.096;17.190;2023-05-28T09:53:25;100757.13;;;18.86;37.24
41706;BME280;27385;51.096;17.190;2023-05-28T09:56:00;100751.38;;;18.85;37.24
41706;BME280;27385;51.096;17.190;2023-05-28T09:58:34;100747.98;;;18.84;36.91
41706;BME280;27385;51.096;17.190;2023-05-28T10:01:11;100740.27;;;18.83;36.70
41706;BME280;27385;51.096;17.190;2023-05-28T10:03:46;100738.05;;;18.85;37.11
41706;BME280;27385;51.096;17.190;2023-05-28T10:06:20;100740.61;;;18.87;36.73
41706;BME280;27385;51.096;17.190;2023-05-28T10:08:53;100743.52;;;18.89;36.62
41706;BME280;27385;51.096;17.190;2023-05-28T10:11:29;100743.45;;;18.93;36.73
41706;BME280;27385;51.096;17.190;2023-05-28T10:14:01;100742.02;;;18.99;36.55
41706;BME280;27385;51.096;17.190;2023-05-28T10:16:32;100741.34;;;19.06;36.46
41706;BME280;27385;51.096;17.190;2023-05-28T10:19:05;100740.08;;;19.10;36.26
41706;BME280;27385;51.096;17.190;2023-05-28T10:21:36;100733.95;;;19.11;35.93
41706;BME280;27385;51.096;17.190;2023-05-28T10:24:08;100734.87;;;19.11;35.82
41706;BME280;27385;51.096;17.190;2023-05-28T10:26:40;100734.95;;;19.14;35.87
41706;BME280;27385;51.096;17.190;2023-05-28T10:29:11;100736.56;;;19.19;35.44
41706;BME280;27385;51.096;17.190;2023-05-28T10:31:42;100730.43;;;19.20;35.68
41706;BME280;27385;51.096;17.190;2023-05-28T10:34:17;100725.83;;;19.23;35.45
41706;BME280;27385;51.096;17.190;2023-05-28T10:36:55;100720.27;;;19.23;35.34
41706;BME280;27385;51.096;17.190;2023-05-28T10:39:26;100721.30;;;19.22;35.44
41706;BME280;27385;51.096;17.190;2023-05-28T10:41:59;100715.97;;;19.20;34.88
41706;BME280;27385;51.096;17.190;2023-05-28T10:44:49;100722.76;;;19.14;34.40
41706;BME280;27385;51.096;17.190;2023-05-28T10:47:32;100718.92;;;19.10;34.92
41706;BME280;27385;51.096;17.190;2023-05-28T10:50:13;100723.53;;;19.15;34.93
41706;BME280;27385;51.096;17.190;2023-05-28T10:52:47;100714.42;;;19.15;35.19
41706;BME280;27385;51.096;17.190;2023-05-28T10:55:47;100710.91;;;19.23;34.93
41706;BME280;27385;51.096;17.190;2023-05-28T10:58:26;100716.48;;;19.25;34.63
41706;BME280;27385;51.096;17.190;2023-05-28T11:01:02;100716.70;;;19.32;34.92
41706;BME280;27385;51.096;17.190;2023-05-28T11:03:47;100720.05;;;19.39;34.24
41706;BME280;27385;51.096;17.190;2023-05-28T11:06:22;100716.06;;;19.42;33.94
41706;BME280;27385;51.096;17.190;2023-05-28T11:08:56;100716.92;;;19.43;33.70
41706;BME280;27385;51.096;17.190;2023-05-28T11:11:27;100715.24;;;19.46;33.63
41706;BME280;27385;51.096;17.190;2023-05-28T11:13:58;100714.30;;;19.52;33.78
41706;BME280;27385;51.096;17.190;2023-05-28T11:16:32;100713.83;;;19.59;33.84
41706;BME280;27385;51.096;17.190;2023-05-28T11:19:04;100709.48;;;19.67;33.76
41706;BME280;27385;51.096;17.190;2023-05-28T11:21:51;100714.13;;;19.75;33.89
41706;BME280;27385;51.096;17.190;2023-05-28T11:24:22;100716.48;;;19.84;33.54
41706;BME280;27385;51.096;17.190;2023-05-28T11:26:54;100714.35;;;19.87;33.84
41706;BME280;27385;51.096;17.190;2023-05-28T11:29:25;100705.23;;;19.88;33.42
41706;BME280;27385;51.096;17.190;2023-05-28T11:31:59;100705.28;;;19.91;33.85
41706;BME280;27385;51.096;17.190;2023-05-28T11:34:33;100710.61;;;19.93;33.33
41706;BME280;27385;51.096;17.190;2023-05-28T11:37:04;100707.16;;;19.89;33.37
41706;BME280;27385;51.096;17.190;2023-05-28T11:39:36;100698.58;;;19.83;33.10
41706;BME280;27385;51.096;17.190;2023-05-28T11:42:10;100694.27;;;19.77;32.89
41706;BME280;27385;51.096;17.190;2023-05-28T11:44:46;100688.71;;;19.77;33.02
41706;BME280;27385;51.096;17.190;2023-05-28T11:47:19;100688.06;;;19.83;32.77
41706;BME280;27385;51.096;17.190;2023-05-28T11:49:52;100682.66;;;19.88;32.72
41706;BME280;27385;51.096;17.190;2023-05-28T11:52:26;100682.04;;;19.87;32.29
41706;BME280;27385;51.096;17.190;2023-05-28T11:55:00;100676.67;;;19.84;32.58
41706;BME280;27385;51.096;17.190;2023-05-28T11:57:32;100675.69;;;19.89;32.80
41706;BME280;27385;51.096;17.190;2023-05-28T12:00:11;100674.95;;;19.95;32.15
41706;BME280;27385;51.096;17.190;2023-05-28T12:02:46;100671.83;;;19.93;32.44
41706;BME280;27385;51.096;17.190;2023-05-28T12:05:18;100666.35;;;19.98;32.53
41706;BME280;27385;51.096;17.190;2023-05-28T12:07:50;100664.61;;;20.01;32.51
41706;BME280;27385;51.096;17.190;2023-05-28T12:10:22;100666.29;;;20.03;32.91
41706;BME280;27385;51.096;17.190;2023-05-28T12:12:57;100661.44;;;20.11;33.40
41706;BME280;27385;51.096;17.190;2023-05-28T12:15:30;100661.48;;;20.22;33.27
41706;BME280;27385;51.096;17.190;2023-05-28T12:18:02;100655.06;;;20.24;32.62
41706;BME280;27385;51.096;17.190;2023-05-28T12:20:36;100661.89;;;20.23;32.54
41706;BME280;27385;51.096;17.190;2023-05-28T12:23:07;100654.85;;;20.25;32.71
41706;BME280;27385;51.096;17.190;2023-05-28T12:25:46;100657.88;;;20.26;32.74
41706;BME280;27385;51.096;17.190;2023-05-28T12:28:18;100660.23;;;20.27;32.68
41706;BME280;27385;51.096;17.190;2023-05-28T12:30:51;100656.49;;;20.29;32.70
41706;BME280;27385;51.096;17.190;2023-05-28T12:33:23;100655.55;;;20.31;32.67
41706;BME280;27385;51.096;17.190;2023-05-28T12:35:54;100654.62;;;20.31;32.57
41706;BME280;27385;51.096;17.190;2023-05-28T12:38:26;100649.78;;;20.34;32.43
41706;BME280;27385;51.096;17.190;2023-05-28T12:40:57;100649.85;;;20.35;31.99
41706;BME280;27385;51.096;17.190;2023-05-28T12:43:31;100648.41;;;20.35;32.08
41706;BME280;27385;51.096;17.190;2023-05-28T12:46:02;100645.92;;;20.36;31.35
41706;BME280;27385;51.096;17.190;2023-05-28T12:48:32;100639.64;;;20.36;31.76
41706;BME280;27385;51.096;17.190;2023-05-28T12:51:04;100632.08;;;20.41;31.69
41706;BME280;27385;51.096;17.190;2023-05-28T12:53:34;100629.67;;;20.48;31.56
41706;BME280;27385;51.096;17.190;2023-05-28T12:56:05;100627.86;;;20.48;31.23
41706;BME280;27385;51.096;17.190;2023-05-28T12:58:36;100630.34;;;20.47;31.29
41706;BME280;27385;51.096;17.190;2023-05-28T13:01:07;100628.52;;;20.48;31.62
41706;BME280;27385;51.096;17.190;2023-05-28T13:03:37;100626.13;;;20.50;31.58
41706;BME280;27385;51.096;17.190;2023-05-28T13:06:08;100626.84;;;20.54;31.88
41706;BME280;27385;51.096;17.190;2023-05-28T13:08:40;100620.98;;;20.56;31.59